createdAt,value
2023-05-25T00:01:55.685Z,100.00
2023-05-25T00:02:50.768Z,100.00
2023-05-25T00:03:46.703Z,100.00
2023-05-25T00:04:40.799Z,100.00
2023-05-25T00:05:34.618Z,100.00
2023-05-25T00:06:16.651Z,100.00
2023-05-25T00:06:56.685Z,100.00
2023-05-25T00:07:36.640Z,100.00
2023-05-25T00:08:17.150Z,100.00
2023-05-25T00:09:01.615Z,100.00
2023-05-25T00:09:41.692Z,100.00
2023-05-25T00:10:24.273Z,100.00
2023-05-25T00:11:05.979Z,100.00
2023-05-25T00:11:46.646Z,100.00
2023-05-25T00:12:26.794Z,100.00
2023-05-25T00:13:07.613Z,100.00
2023-05-25T00:13:47.691Z,100.00
2023-05-25T00:14:29.589Z,100.00
2023-05-25T00:15:11.809Z,100.00
2023-05-25T00:15:52.622Z,100.00
2023-05-25T00:16:37.319Z,100.00
2023-05-25T00:17:18.718Z,100.00
2023-05-25T00:17:58.739Z,100.00
2023-05-25T00:18:39.594Z,100.00
2023-05-25T00:19:19.687Z,100.00
2023-05-25T00:19:59.583Z,100.00
2023-05-25T00:20:39.759Z,100.00
2023-05-25T00:21:20.625Z,100.00
2023-05-25T00:22:03.902Z,100.00
2023-05-25T00:22:44.611Z,100.00
2023-05-25T00:23:24.714Z,100.00
2023-05-25T00:24:04.594Z,100.00
2023-05-25T00:24:46.677Z,100.00
2023-05-25T00:25:27.586Z,100.00
2023-05-25T00:26:10.865Z,100.00
2023-05-25T00:26:51.598Z,100.00
2023-05-25T00:27:31.666Z,100.00
2023-05-25T00:28:12.690Z,100.00
2023-05-25T00:28:52.780Z,100.00
2023-05-25T00:29:33.601Z,100.00
2023-05-25T00:30:14.690Z,100.00
2023-05-25T00:30:55.640Z,100.00
2023-05-25T00:31:36.564Z,100.00
2023-05-25T00:32:17.586Z,100.00
2023-05-25T00:32:57.725Z,100.00
2023-05-25T00:33:37.598Z,100.00
2023-05-25T00:34:17.686Z,100.00
2023-05-25T00:34:58.601Z,100.00
2023-05-25T00:35:38.667Z,100.00
2023-05-25T00:36:18.592Z,100.00
2023-05-25T00:36:58.674Z,100.00
2023-05-25T00:37:38.577Z,100.00
2023-05-25T00:38:24.659Z,100.00
2023-05-25T00:39:05.592Z,100.00
2023-05-25T00:39:45.765Z,100.00
2023-05-25T00:40:26.560Z,100.00
2023-05-25T00:41:06.680Z,100.00
2023-05-25T00:41:48.584Z,100.00
2023-05-25T00:42:28.708Z,100.00
2023-05-25T00:43:09.592Z,100.00
2023-05-25T00:43:52.691Z,100.00
2023-05-25T00:44:32.606Z,100.00
2023-05-25T00:45:13.701Z,100.00
2023-05-25T00:45:54.590Z,100.00
2023-05-25T00:46:34.689Z,100.00
2023-05-25T00:47:15.590Z,100.00
2023-05-25T00:47:58.780Z,100.00
2023-05-25T00:48:39.586Z,100.00
2023-05-25T00:49:25.723Z,100.00
2023-05-25T00:50:06.587Z,100.00
2023-05-25T00:50:49.647Z,100.00
2023-05-25T00:51:40.590Z,100.00
2023-05-25T00:52:14.712Z,100.00
2023-05-25T00:53:01.558Z,100.00
2023-05-25T00:53:37.091Z,100.00
2023-05-25T00:54:25.585Z,100.00
2023-05-25T00:55:01.767Z,100.00
2023-05-25T00:56:14.598Z,100.00
2023-05-25T00:57:07.790Z,100.00
2023-05-25T00:57:52.601Z,100.00
2023-05-25T00:58:34.941Z,100.00
2023-05-25T00:59:17.560Z,100.00
2023-05-25T01:00:01.646Z,100.00
2023-05-25T01:00:45.600Z,100.00
2023-05-25T01:01:34.605Z,100.00
2023-05-25T01:02:30.613Z,100.00
2023-05-25T01:03:33.659Z,100.00
2023-05-25T01:04:29.562Z,100.00
2023-05-25T01:05:17.694Z,100.00
2023-05-25T01:05:58.539Z,100.00
2023-05-25T01:06:46.576Z,100.00
2023-05-25T01:07:41.590Z,100.00
2023-05-25T01:08:38.583Z,100.00
2023-05-25T01:09:33.587Z,100.00
2023-05-25T01:10:29.595Z,100.00
2023-05-25T01:11:25.580Z,100.00
2023-05-25T01:12:07.572Z,100.00
2023-05-25T01:12:49.633Z,100.00
2023-05-25T01:13:29.560Z,100.00
2023-05-25T01:14:10.666Z,100.00
2023-05-25T01:14:53.563Z,100.00
2023-05-25T01:15:33.637Z,100.00
2023-05-25T01:16:14.609Z,100.00
2023-05-25T01:16:56.468Z,100.00
2023-05-25T01:17:36.586Z,100.00
2023-05-25T01:18:16.853Z,100.00
2023-05-25T01:18:59.544Z,100.00
2023-05-25T01:19:41.152Z,100.00
2023-05-25T01:20:22.567Z,100.00
2023-05-25T01:21:29.229Z,100.00
2023-05-25T01:22:30.545Z,100.00
2023-05-25T01:23:18.563Z,100.00
2023-05-25T01:24:05.970Z,100.00
2023-05-25T01:25:11.549Z,100.00
2023-05-25T01:25:51.649Z,100.00
2023-05-25T01:27:05.557Z,100.00
2023-05-25T01:27:58.733Z,100.00
2023-05-25T01:28:47.622Z,100.00
2023-05-25T01:29:29.692Z,100.00
2023-05-25T01:30:10.530Z,100.00
2023-05-25T01:30:53.616Z,100.00
2023-05-25T01:31:33.531Z,100.00
2023-05-25T01:32:14.733Z,100.00
2023-05-25T01:32:55.572Z,100.00
2023-05-25T01:33:36.646Z,100.00
2023-05-25T01:34:17.574Z,100.00
2023-05-25T01:34:59.660Z,100.00
2023-05-25T01:35:40.526Z,100.00
2023-05-25T01:36:21.039Z,100.00
2023-05-25T01:37:03.537Z,100.00
2023-05-25T01:37:53.698Z,100.00
2023-05-25T01:38:33.531Z,100.00
2023-05-25T01:39:13.620Z,100.00
2023-05-25T01:39:53.557Z,100.00
2023-05-25T01:40:34.616Z,100.00
2023-05-25T01:41:15.539Z,100.00
2023-05-25T01:41:55.802Z,100.00
2023-05-25T01:42:35.544Z,100.00
2023-05-25T01:43:15.674Z,100.00
2023-05-25T01:43:56.533Z,100.00
2023-05-25T01:44:36.654Z,100.00
2023-05-25T01:45:18.547Z,100.00
2023-05-25T01:46:46.544Z,100.00
2023-05-25T01:47:46.645Z,100.00
2023-05-25T01:49:49.510Z,100.00
2023-05-25T01:50:58.646Z,100.00
2023-05-25T01:51:52.606Z,100.00
2023-05-25T01:53:11.539Z,100.00
2023-05-25T01:53:55.832Z,100.00
2023-05-25T01:54:47.534Z,100.00
2023-05-25T01:55:26.834Z,100.00
2023-05-25T01:56:18.529Z,100.00
2023-05-25T01:56:54.639Z,100.00
2023-05-25T01:57:45.494Z,100.00
2023-05-25T01:58:21.613Z,100.00
2023-05-25T01:59:09.568Z,100.00
2023-05-25T01:59:43.609Z,100.00
2023-05-25T02:00:38.543Z,100.00
2023-05-25T02:01:13.607Z,100.00
2023-05-25T02:01:55.647Z,100.00
2023-05-25T02:02:38.604Z,100.00
2023-05-25T02:03:18.512Z,100.00
2023-05-25T02:03:59.626Z,100.00
2023-05-25T02:04:40.594Z,100.00
2023-05-25T02:05:20.925Z,100.00
2023-05-25T02:06:00.515Z,100.00
2023-05-25T02:06:42.623Z,100.00
2023-05-25T02:07:22.534Z,100.00
2023-05-25T02:08:02.624Z,100.00
2023-05-25T02:08:43.515Z,100.00
2023-05-25T02:09:23.599Z,100.00
2023-05-25T02:10:03.571Z,100.00
2023-05-25T02:10:44.583Z,100.00
2023-05-25T02:11:25.486Z,100.00
2023-05-25T02:12:06.376Z,100.00
2023-05-25T02:12:46.551Z,100.00
2023-05-25T02:13:26.628Z,100.00
2023-05-25T02:14:06.530Z,100.00
2023-05-25T02:14:48.677Z,100.00
2023-05-25T02:15:29.544Z,100.00
2023-05-25T02:16:09.753Z,100.00
2023-05-25T02:16:52.506Z,100.00
2023-05-25T02:17:32.657Z,100.00
2023-05-25T02:18:12.540Z,100.00
2023-05-25T02:18:53.178Z,100.00
2023-05-25T02:19:34.508Z,100.00
2023-05-25T02:20:15.757Z,100.00
2023-05-25T02:20:56.534Z,100.00
2023-05-25T02:21:38.205Z,100.00
2023-05-25T02:22:18.488Z,100.00
2023-05-25T02:23:00.804Z,100.00
2023-05-25T02:23:40.522Z,100.00
2023-05-25T02:24:20.596Z,100.00
2023-05-25T02:25:00.522Z,100.00
2023-05-25T02:25:42.683Z,100.00
2023-05-25T02:26:23.577Z,100.00
2023-05-25T02:27:03.662Z,100.00
2023-05-25T02:27:43.477Z,100.00
2023-05-25T02:28:23.627Z,100.00
2023-05-25T02:29:03.572Z,100.00
2023-05-25T02:29:43.608Z,100.00
2023-05-25T02:30:23.472Z,100.00
2023-05-25T02:31:03.648Z,100.00
2023-05-25T02:31:44.568Z,100.00
2023-05-25T02:32:24.776Z,100.00
2023-05-25T02:33:04.528Z,100.00
2023-05-25T02:33:44.577Z,100.00
2023-05-25T02:34:24.665Z,100.00
2023-05-25T02:35:06.632Z,100.00
2023-05-25T02:35:48.499Z,100.00
2023-05-25T02:36:28.652Z,100.00
2023-05-25T02:37:08.463Z,100.00
2023-05-25T02:37:50.879Z,100.00
2023-05-25T02:38:32.487Z,100.00
2023-05-25T02:39:12.621Z,100.00
2023-05-25T02:39:52.532Z,100.00
2023-05-25T02:40:32.629Z,100.00
2023-05-25T02:41:12.466Z,100.00
2023-05-25T02:41:52.560Z,100.00
2023-05-25T02:42:32.476Z,100.00
2023-05-25T02:43:12.551Z,100.00
2023-05-25T02:43:52.473Z,100.00
2023-05-25T02:44:32.732Z,100.00
2023-05-25T02:45:17.512Z,100.00
2023-05-25T02:45:57.583Z,100.00
2023-05-25T02:46:39.507Z,100.00
2023-05-25T02:47:19.692Z,100.00
2023-05-25T02:47:59.534Z,100.00
2023-05-25T02:48:39.560Z,100.00
2023-05-25T02:49:20.458Z,100.00
2023-05-25T02:50:00.728Z,100.00
2023-05-25T02:50:40.475Z,100.00
2023-05-25T02:51:20.656Z,100.00
2023-05-25T02:52:00.478Z,100.00
2023-05-25T02:52:40.649Z,100.00
2023-05-25T02:53:20.482Z,100.00
2023-05-25T02:54:01.567Z,100.00
2023-05-25T02:54:42.541Z,100.00
2023-05-25T02:55:26.033Z,100.00
2023-05-25T02:56:08.474Z,100.00
2023-05-25T02:56:48.537Z,100.00
2023-05-25T02:57:29.482Z,100.00
2023-05-25T02:58:09.588Z,100.00
2023-05-25T02:58:49.458Z,100.00
2023-05-25T02:59:29.539Z,100.00
2023-05-25T03:00:11.471Z,100.00
2023-05-25T03:00:51.574Z,100.00
2023-05-25T03:01:31.594Z,100.00
2023-05-25T03:02:12.564Z,100.00
2023-05-25T03:02:53.530Z,100.00
2023-05-25T03:03:34.590Z,100.00
2023-05-25T03:04:14.486Z,100.00
2023-05-25T03:04:54.624Z,100.00
2023-05-25T03:05:34.449Z,100.00
2023-05-25T03:06:14.542Z,100.00
2023-05-25T03:06:55.477Z,100.00
2023-05-25T03:07:35.641Z,100.00
2023-05-25T03:08:15.437Z,100.00
2023-05-25T03:08:55.528Z,100.00
2023-05-25T03:09:35.494Z,100.00
2023-05-25T03:10:17.528Z,100.00
2023-05-25T03:10:57.458Z,100.00
2023-05-25T03:11:37.549Z,100.00
2023-05-25T03:12:18.471Z,100.00
2023-05-25T03:12:58.611Z,100.00
2023-05-25T03:13:38.461Z,100.00
2023-05-25T03:14:18.522Z,100.00
2023-05-25T03:14:58.452Z,100.00
2023-05-25T03:15:40.107Z,100.00
2023-05-25T03:16:21.464Z,100.00
2023-05-25T03:17:01.610Z,100.00
2023-05-25T03:17:42.542Z,100.00
2023-05-25T03:18:22.563Z,100.00
2023-05-25T03:19:02.431Z,100.00
2023-05-25T03:19:42.615Z,100.00
2023-05-25T03:20:23.464Z,100.00
2023-05-25T03:21:03.522Z,100.00
2023-05-25T03:21:45.440Z,100.00
2023-05-25T03:22:25.815Z,100.00
2023-05-25T03:23:05.459Z,100.00
2023-05-25T03:23:45.725Z,100.00
2023-05-25T03:24:25.452Z,100.00
2023-05-25T03:25:06.654Z,100.00
2023-05-25T03:25:46.670Z,100.00
2023-05-25T03:26:26.736Z,100.00
2023-05-25T03:27:07.448Z,100.00
2023-05-25T03:27:47.512Z,100.00
2023-05-25T03:28:30.450Z,100.00
2023-05-25T03:29:10.625Z,100.00
2023-05-25T03:29:50.427Z,100.00
2023-05-25T03:30:31.324Z,100.00
2023-05-25T03:31:11.447Z,100.00
2023-05-25T03:31:54.543Z,100.00
2023-05-25T03:32:34.478Z,100.00
2023-05-25T03:33:14.513Z,100.00
2023-05-25T03:33:54.514Z,100.00
2023-05-25T03:34:37.365Z,100.00
2023-05-25T03:35:17.435Z,100.00
2023-05-25T03:35:57.494Z,100.00
2023-05-25T03:36:39.439Z,100.00
2023-05-25T03:37:19.583Z,100.00
2023-05-25T03:37:59.462Z,100.00
2023-05-25T03:38:39.504Z,100.00
2023-05-25T03:39:20.449Z,100.00
2023-05-25T03:40:00.610Z,100.00
2023-05-25T03:40:40.447Z,100.00
2023-05-25T03:41:20.810Z,100.00
2023-05-25T03:42:01.432Z,100.00
2023-05-25T03:42:42.517Z,100.00
2023-05-25T03:43:23.428Z,100.00
2023-05-25T03:44:03.529Z,100.00
2023-05-25T03:44:43.444Z,100.00
2023-05-25T03:45:23.525Z,100.00
2023-05-25T03:46:03.476Z,100.00
2023-05-25T03:46:57.433Z,100.00
2023-05-25T03:47:52.456Z,100.00
2023-05-25T03:48:46.410Z,100.00
2023-05-25T03:49:40.446Z,100.00
2023-05-25T03:50:20.447Z,100.00
2023-05-25T03:51:00.676Z,100.00
2023-05-25T03:51:41.407Z,100.00
2023-05-25T03:52:21.536Z,100.00
2023-05-25T03:53:01.421Z,100.00
2023-05-25T03:53:41.575Z,100.00
2023-05-25T03:54:21.412Z,100.00
2023-05-25T03:55:05.190Z,100.00
2023-05-25T03:55:46.521Z,100.00
2023-05-25T03:56:27.284Z,100.00
2023-05-25T03:57:10.425Z,100.00
2023-05-25T03:57:50.496Z,100.00
2023-05-25T03:58:30.430Z,100.00
2023-05-25T03:59:10.603Z,100.00
2023-05-25T03:59:51.409Z,100.00
2023-05-25T04:00:31.510Z,100.00
2023-05-25T04:01:11.441Z,100.00
2023-05-25T04:01:52.518Z,100.00
2023-05-25T04:02:33.437Z,100.00
2023-05-25T04:03:13.577Z,100.00
2023-05-25T04:03:54.580Z,100.00
2023-05-25T04:04:34.515Z,100.00
2023-05-25T04:05:15.442Z,100.00
2023-05-25T04:05:59.077Z,100.00
2023-05-25T04:06:40.611Z,100.00
2023-05-25T04:07:20.582Z,100.00
2023-05-25T04:08:01.392Z,100.00
2023-05-25T04:08:41.734Z,100.00
2023-05-25T04:09:22.410Z,100.00
2023-05-25T04:10:02.548Z,100.00
2023-05-25T04:10:42.397Z,100.00
2023-05-25T04:11:24.639Z,100.00
2023-05-25T04:12:05.423Z,100.00
2023-05-25T04:12:45.623Z,100.00
2023-05-25T04:13:25.388Z,100.00
2023-05-25T04:14:05.509Z,100.00
2023-05-25T04:14:45.388Z,100.00
2023-05-25T04:15:25.457Z,100.00
2023-05-25T04:16:06.474Z,100.00
2023-05-25T04:16:46.523Z,100.00
2023-05-25T04:17:31.412Z,100.00
2023-05-25T04:18:11.587Z,100.00
2023-05-25T04:18:51.400Z,100.00
2023-05-25T04:19:31.481Z,100.00
2023-05-25T04:20:15.461Z,100.00
2023-05-25T04:20:57.322Z,100.00
2023-05-25T04:21:37.373Z,100.00
2023-05-25T04:22:17.500Z,100.00
2023-05-25T04:22:57.412Z,100.00
2023-05-25T04:23:37.545Z,100.00
2023-05-25T04:24:18.380Z,100.00
2023-05-25T04:24:58.483Z,100.00
2023-05-25T04:25:38.411Z,100.00
2023-05-25T04:26:18.545Z,100.00
2023-05-25T04:26:58.375Z,100.00
2023-05-25T04:27:38.459Z,100.00
2023-05-25T04:28:21.538Z,100.00
2023-05-25T04:29:02.715Z,100.00
2023-05-25T04:29:43.403Z,100.00
2023-05-25T04:30:23.520Z,100.00
2023-05-25T04:31:06.444Z,100.00
2023-05-25T04:31:47.298Z,100.00
2023-05-25T04:32:28.412Z,100.00
2023-05-25T04:33:11.520Z,100.00
2023-05-25T04:33:52.423Z,100.00
2023-05-25T04:34:34.217Z,100.00
2023-05-25T04:35:16.418Z,100.00
2023-05-25T04:35:58.692Z,100.00
2023-05-25T04:36:39.384Z,100.00
2023-05-25T04:37:19.603Z,100.00
2023-05-25T04:38:01.401Z,100.00
2023-05-25T04:38:42.904Z,100.00
2023-05-25T04:39:23.515Z,100.00
2023-05-25T04:40:08.435Z,100.00
2023-05-25T04:40:49.382Z,100.00
2023-05-25T04:41:31.038Z,100.00
2023-05-25T04:42:12.438Z,100.00
2023-05-25T04:42:54.159Z,100.00
2023-05-25T04:43:36.408Z,100.00
2023-05-25T04:44:16.538Z,100.00
2023-05-25T04:45:02.418Z,100.00
2023-05-25T04:45:43.796Z,100.00
2023-05-25T04:46:25.509Z,100.00
2023-05-25T04:47:05.779Z,100.00
2023-05-25T04:47:47.479Z,100.00
2023-05-25T04:48:33.626Z,100.00
2023-05-25T04:49:17.359Z,100.00
2023-05-25T04:49:57.520Z,100.00
2023-05-25T04:50:38.435Z,100.00
2023-05-25T04:51:20.110Z,100.00
2023-05-25T04:52:01.371Z,100.00
2023-05-25T04:52:41.451Z,100.00
2023-05-25T04:53:22.376Z,100.00
2023-05-25T04:54:16.442Z,100.00
2023-05-25T04:55:10.454Z,100.00
2023-05-25T04:55:58.437Z,100.00
2023-05-25T04:56:32.455Z,100.00
2023-05-25T04:57:19.366Z,100.00
2023-05-25T04:57:53.481Z,100.00
2023-05-25T04:58:40.366Z,100.00
2023-05-25T04:59:14.474Z,100.00
2023-05-25T05:00:02.370Z,100.00
2023-05-25T05:00:36.489Z,100.00
2023-05-25T05:01:23.539Z,100.00
2023-05-25T05:01:57.477Z,100.00
2023-05-25T05:02:44.490Z,100.00
2023-05-25T05:03:18.553Z,100.00
2023-05-25T05:04:05.441Z,100.00
2023-05-25T05:04:41.302Z,100.00
2023-05-25T05:05:29.381Z,100.00
2023-05-25T05:06:03.495Z,100.00
2023-05-25T05:06:44.394Z,100.00
2023-05-25T05:07:24.486Z,100.00
2023-05-25T05:08:04.419Z,100.00
2023-05-25T05:08:44.478Z,100.00
2023-05-25T05:09:25.376Z,100.00
2023-05-25T05:10:08.483Z,100.00
2023-05-25T05:10:48.389Z,100.00
2023-05-25T05:11:28.549Z,100.00
2023-05-25T05:12:11.973Z,100.00
2023-05-25T05:12:54.392Z,100.00
2023-05-25T05:13:35.356Z,100.00
2023-05-25T05:14:15.645Z,100.00
2023-05-25T05:14:58.389Z,100.00
2023-05-25T05:15:38.442Z,100.00
2023-05-25T05:16:18.410Z,100.00
2023-05-25T05:16:58.626Z,100.00
2023-05-25T05:17:48.400Z,100.00
2023-05-25T05:18:31.905Z,100.00
2023-05-25T05:19:12.365Z,100.00
2023-05-25T05:19:52.719Z,100.00
2023-05-25T05:20:33.433Z,100.00
2023-05-25T05:21:13.670Z,100.00
2023-05-25T05:21:54.389Z,100.00
2023-05-25T05:22:34.626Z,100.00
2023-05-25T05:23:14.386Z,100.00
2023-05-25T05:23:54.492Z,100.00
2023-05-25T05:24:34.343Z,100.00
2023-05-25T05:25:15.441Z,100.00
2023-05-25T05:25:56.398Z,100.00
2023-05-25T05:26:48.288Z,100.00
2023-05-25T05:27:39.793Z,100.00
2023-05-25T05:28:27.396Z,100.00
2023-05-25T05:29:21.364Z,100.00
2023-05-25T05:30:16.351Z,100.00
2023-05-25T05:31:11.443Z,100.00
2023-05-25T05:32:05.349Z,100.00
2023-05-25T05:32:59.493Z,100.00
2023-05-25T05:33:46.401Z,100.00
2023-05-25T05:34:20.467Z,100.00
2023-05-25T05:35:08.370Z,100.00
2023-05-25T05:35:42.600Z,100.00
2023-05-25T05:36:36.383Z,100.00
2023-05-25T05:37:16.462Z,100.00
2023-05-25T05:38:03.354Z,100.00
2023-05-25T05:38:38.788Z,100.00
2023-05-25T05:39:21.325Z,100.00
2023-05-25T05:40:01.402Z,100.00
2023-05-25T05:40:42.378Z,100.00
2023-05-25T05:41:33.458Z,100.00
2023-05-25T05:42:14.361Z,100.00
2023-05-25T05:42:54.452Z,100.00
2023-05-25T05:43:36.371Z,100.00
2023-05-25T05:44:16.439Z,100.00
2023-05-25T05:44:56.416Z,100.00
2023-05-25T05:45:36.440Z,100.00
2023-05-25T05:46:17.362Z,100.00
2023-05-25T05:47:01.957Z,100.00
2023-05-25T05:47:42.430Z,100.00
2023-05-25T05:48:23.432Z,100.00
2023-05-25T05:49:10.362Z,100.00
2023-05-25T05:49:50.459Z,100.00
2023-05-25T05:50:31.362Z,100.00
2023-05-25T05:51:12.415Z,100.00
2023-05-25T05:51:53.560Z,100.00
2023-05-25T05:52:33.414Z,100.00
2023-05-25T05:53:17.154Z,100.00
2023-05-25T05:53:57.452Z,100.00
2023-05-25T05:54:38.350Z,100.00
2023-05-25T05:55:18.548Z,100.00
2023-05-25T05:56:01.373Z,100.00
2023-05-25T05:56:41.447Z,100.00
2023-05-25T05:57:21.354Z,100.00
2023-05-25T05:58:01.421Z,100.00
2023-05-25T05:58:42.361Z,100.00
2023-05-25T05:59:22.481Z,100.00
2023-05-25T06:00:03.382Z,100.00
2023-05-25T06:00:43.443Z,100.00
2023-05-25T06:01:24.390Z,100.00
2023-05-25T06:02:04.560Z,100.00
2023-05-25T06:02:46.547Z,100.00
2023-05-25T06:03:30.146Z,100.00
2023-05-25T06:04:13.332Z,100.00
2023-05-25T06:04:54.455Z,100.00
2023-05-25T06:05:35.465Z,100.00
2023-05-25T06:06:15.611Z,100.00
2023-05-25T06:06:56.352Z,100.00
2023-05-25T06:07:37.975Z,100.00
2023-05-25T06:08:21.306Z,100.00
2023-05-25T06:09:03.472Z,100.00
2023-05-25T06:09:43.340Z,100.00
2023-05-25T06:10:23.466Z,100.00
2023-05-25T06:11:05.304Z,100.00
2023-05-25T06:11:46.403Z,100.00
2023-05-25T06:12:26.334Z,100.00
2023-05-25T06:13:09.477Z,100.00
2023-05-25T06:13:49.337Z,100.00
2023-05-25T06:14:29.466Z,100.00
2023-05-25T06:15:11.321Z,100.00
2023-05-25T06:15:51.410Z,100.00
2023-05-25T06:16:34.381Z,100.00
2023-05-25T06:17:14.366Z,100.00
2023-05-25T06:17:54.420Z,100.00
2023-05-25T06:18:34.404Z,100.00
2023-05-25T06:19:15.438Z,100.00
2023-05-25T06:19:55.477Z,100.00
2023-05-25T06:20:35.393Z,100.00
2023-05-25T06:21:15.443Z,100.00
2023-05-25T06:21:55.312Z,100.00
2023-05-25T06:22:35.453Z,100.00
2023-05-25T06:23:18.296Z,100.00
2023-05-25T06:23:58.411Z,100.00
2023-05-25T06:24:38.283Z,100.00
2023-05-25T06:25:18.424Z,100.00
2023-05-25T06:26:00.326Z,100.00
2023-05-25T06:26:40.373Z,100.00
2023-05-25T06:27:21.285Z,100.00
2023-05-25T06:28:01.371Z,100.00
2023-05-25T06:28:42.338Z,100.00
2023-05-25T06:29:23.377Z,100.00
2023-05-25T06:30:03.304Z,100.00
2023-05-25T06:30:43.446Z,100.00
2023-05-25T06:31:24.325Z,100.00
2023-05-25T06:32:04.461Z,100.00
2023-05-25T06:32:44.327Z,100.00
2023-05-25T06:33:24.411Z,100.00
2023-05-25T06:34:04.330Z,100.00
2023-05-25T06:34:44.402Z,100.00
2023-05-25T06:35:26.285Z,100.00
2023-05-25T06:36:07.331Z,100.00
2023-05-25T06:36:47.289Z,100.00
2023-05-25T06:37:27.376Z,100.00
2023-05-25T06:38:08.273Z,100.00
2023-05-25T06:38:48.421Z,100.00
2023-05-25T06:39:29.304Z,100.00
2023-05-25T06:40:10.441Z,100.00
2023-05-25T06:40:50.306Z,100.00
2023-05-25T06:41:30.894Z,100.00
2023-05-25T06:42:12.291Z,100.00
2023-05-25T06:42:52.358Z,100.00
2023-05-25T06:43:33.318Z,100.00
2023-05-25T06:44:14.338Z,100.00
2023-05-25T06:44:54.285Z,100.00
2023-05-25T06:45:34.376Z,100.00
2023-05-25T06:46:17.345Z,100.00
2023-05-25T06:46:57.519Z,100.00
2023-05-25T06:47:39.400Z,100.00
2023-05-25T06:48:19.381Z,100.00
2023-05-25T06:48:59.300Z,100.00
2023-05-25T06:49:39.372Z,100.00
2023-05-25T06:50:20.345Z,100.00
2023-05-25T06:51:00.363Z,100.00
2023-05-25T06:51:41.258Z,100.00
2023-05-25T06:52:21.428Z,100.00
2023-05-25T06:53:01.266Z,100.00
2023-05-25T06:53:41.428Z,100.00
2023-05-25T06:54:22.272Z,100.00
2023-05-25T06:55:04.000Z,100.00
2023-05-25T06:55:45.525Z,100.00
2023-05-25T06:56:26.490Z,100.00
2023-05-25T06:57:06.261Z,100.00
2023-05-25T06:57:47.345Z,100.00
2023-05-25T06:58:27.268Z,100.00
2023-05-25T06:59:07.355Z,100.00
2023-05-25T06:59:48.330Z,100.00
2023-05-25T07:00:28.376Z,100.00
2023-05-25T07:01:09.367Z,100.00
2023-05-25T07:01:49.658Z,100.00
2023-05-25T07:02:30.297Z,100.00
2023-05-25T07:03:10.550Z,100.00
2023-05-25T07:03:51.250Z,100.00
2023-05-25T07:04:31.364Z,100.00
2023-05-25T07:05:12.309Z,100.00
2023-05-25T07:05:46.284Z,100.00
2023-05-25T07:06:34.281Z,100.00
2023-05-25T07:07:09.465Z,100.00
2023-05-25T07:07:57.272Z,100.00
2023-05-25T07:08:31.483Z,100.00
2023-05-25T07:09:18.291Z,100.00
2023-05-25T07:09:52.027Z,100.00
2023-05-25T07:10:39.254Z,100.00
2023-05-25T07:11:14.197Z,100.00
2023-05-25T07:11:55.280Z,100.00
2023-05-25T07:12:29.374Z,100.00
2023-05-25T07:13:03.057Z,100.00
2023-05-25T07:13:43.261Z,100.00
2023-05-25T07:14:17.360Z,100.00
2023-05-25T07:14:51.060Z,100.00
2023-05-25T07:15:32.289Z,100.00
2023-05-25T07:16:06.359Z,100.00
2023-05-25T07:16:40.036Z,100.00
2023-05-25T07:17:21.259Z,100.00
2023-05-25T07:17:57.196Z,100.00
2023-05-25T07:18:33.434Z,100.00
2023-05-25T07:19:14.284Z,100.00
2023-05-25T07:19:50.001Z,100.00
2023-05-25T07:20:24.652Z,100.00
2023-05-25T07:21:05.246Z,100.00
2023-05-25T07:21:39.401Z,100.00
2023-05-25T07:22:13.152Z,100.00
2023-05-25T07:22:54.278Z,100.00
2023-05-25T07:23:28.349Z,100.00
2023-05-25T07:24:02.473Z,100.00
2023-05-25T07:24:43.262Z,100.00
2023-05-25T07:25:17.370Z,100.00
2023-05-25T07:25:51.056Z,100.00
2023-05-25T07:26:32.282Z,100.00
2023-05-25T07:27:06.971Z,100.00
2023-05-25T07:27:42.704Z,100.00
2023-05-25T07:28:22.311Z,100.00
2023-05-25T07:28:56.388Z,100.00
2023-05-25T07:29:30.497Z,100.00
2023-05-25T07:30:13.251Z,100.00
2023-05-25T07:30:47.382Z,100.00
2023-05-25T07:31:21.318Z,100.00
2023-05-25T07:32:01.261Z,100.00
2023-05-25T07:32:35.563Z,100.00
2023-05-25T07:33:10.044Z,100.00
2023-05-25T07:33:51.276Z,100.00
2023-05-25T07:34:27.734Z,100.00
2023-05-25T07:35:02.000Z,100.00
2023-05-25T07:35:42.309Z,100.00
2023-05-25T07:36:16.852Z,100.00
2023-05-25T07:36:51.259Z,100.00
2023-05-25T07:37:32.257Z,100.00
2023-05-25T07:38:08.376Z,100.00
2023-05-25T07:38:42.157Z,100.00
2023-05-25T07:39:22.274Z,100.00
2023-05-25T07:39:56.371Z,100.00
2023-05-25T07:40:30.459Z,100.00
2023-05-25T07:41:10.235Z,100.00
2023-05-25T07:41:45.388Z,100.00
2023-05-25T07:42:21.060Z,100.00
2023-05-25T07:43:02.224Z,100.00
2023-05-25T07:43:37.405Z,100.00
2023-05-25T07:44:11.035Z,100.00
2023-05-25T07:44:51.301Z,100.00
2023-05-25T07:45:25.354Z,100.00
2023-05-25T07:45:59.106Z,100.00
2023-05-25T07:46:39.295Z,100.00
2023-05-25T07:47:13.475Z,100.00
2023-05-25T07:47:47.642Z,100.00
2023-05-25T07:48:27.388Z,100.00
2023-05-25T07:49:03.418Z,100.00
2023-05-25T07:49:36.956Z,100.00
2023-05-25T07:50:18.256Z,100.00
2023-05-25T07:50:52.573Z,100.00
2023-05-25T07:51:29.140Z,100.00
2023-05-25T07:52:12.258Z,100.00
2023-05-25T07:52:46.460Z,100.00
2023-05-25T07:53:21.388Z,100.00
2023-05-25T07:54:03.220Z,100.00
2023-05-25T07:54:40.211Z,100.00
2023-05-25T07:55:14.078Z,100.00
2023-05-25T07:55:54.341Z,100.00
2023-05-25T07:56:29.304Z,100.00
2023-05-25T07:57:03.108Z,100.00
2023-05-25T07:57:43.239Z,100.00
2023-05-25T07:58:17.327Z,100.00
2023-05-25T07:58:51.090Z,100.00
2023-05-25T07:59:33.208Z,100.00
2023-05-25T08:00:11.023Z,100.00
2023-05-25T08:00:45.064Z,100.00
2023-05-25T08:02:52.278Z,100.00
2023-05-25T08:03:39.909Z,100.00
2023-05-25T08:04:22.059Z,100.00
2023-05-25T08:05:02.262Z,100.00
2023-05-25T08:05:36.344Z,100.00
2023-05-25T08:06:24.225Z,100.00
2023-05-25T08:06:58.308Z,100.00
2023-05-25T08:07:45.204Z,100.00
2023-05-25T08:08:26.232Z,100.00
2023-05-25T08:09:20.242Z,100.00
2023-05-25T08:10:15.222Z,100.00
2023-05-25T08:11:09.210Z,100.00
2023-05-25T08:12:24.138Z,100.00
2023-05-25T08:13:17.259Z,100.00
2023-05-25T08:13:58.216Z,100.00
2023-05-25T08:14:38.348Z,100.00
2023-05-25T08:15:20.248Z,100.00
2023-05-25T08:16:01.304Z,100.00
2023-05-25T08:16:41.316Z,100.00
2023-05-25T08:17:21.398Z,100.00
2023-05-25T08:18:03.236Z,100.00
2023-05-25T08:18:46.594Z,100.00
2023-05-25T08:19:27.227Z,100.00
2023-05-25T08:20:08.647Z,100.00
2023-05-25T08:20:48.243Z,100.00
2023-05-25T08:21:28.296Z,99.94
2023-05-25T08:22:08.199Z,99.80
2023-05-25T08:22:48.290Z,99.76
2023-05-25T08:23:29.198Z,99.46
2023-05-25T08:24:09.403Z,99.74
2023-05-25T08:24:49.213Z,99.22
2023-05-25T08:25:29.292Z,99.03
2023-05-25T08:26:26.025Z,98.83
2023-05-25T08:27:10.488Z,99.19
2023-05-25T08:27:51.184Z,97.39
2023-05-25T08:28:31.279Z,98.08
2023-05-25T08:29:12.193Z,97.92
2023-05-25T08:29:59.221Z,98.60
2023-05-25T08:30:53.268Z,98.36
2023-05-25T08:31:48.234Z,97.77
2023-05-25T08:32:42.263Z,97.71
2023-05-25T08:33:36.207Z,97.30
2023-05-25T08:34:30.211Z,97.71
2023-05-25T08:35:17.214Z,97.46
2023-05-25T08:35:52.769Z,97.61
2023-05-25T08:36:42.191Z,97.99
2023-05-25T08:37:16.576Z,98.27
2023-05-25T08:38:03.187Z,97.82
2023-05-25T08:38:37.296Z,97.53
2023-05-25T08:39:25.195Z,97.63
2023-05-25T08:40:02.154Z,97.19
2023-05-25T08:40:42.234Z,96.97
2023-05-25T08:41:22.855Z,96.65
2023-05-25T08:42:04.170Z,96.83
2023-05-25T08:42:44.483Z,97.12
2023-05-25T08:43:25.180Z,97.32
2023-05-25T08:44:08.146Z,97.03
2023-05-25T08:44:49.199Z,97.56
2023-05-25T08:45:35.511Z,97.34